sensor_id;sensor_type;location;lat;lon;timestamp;temperature;humidity
26063;DHT22;13837;48.562;12.108;2023-10-31T00:01:49;11.30;99.90
26063;DHT22;13837;48.562;12.108;2023-10-31T00:04:15;11.30;99.90
26063;DHT22;13837;48.562;12.108;2023-10-31T00:06:41;11.30;99.90
26063;DHT22;13837;48.562;12.108;2023-10-31T00:09:07;11.30;99.90
26063;DHT22;13837;48.562;12.108;2023-10-31T00:11:33;11.30;99.90
26063;DHT22;13837;48.562;12.108;2023-10-31T00:13:59;11.30;99.90
26063;DHT22;13837;48.562;12.108;2023-10-31T00:16:25;11.30;99.90
26063;DHT22;13837;48.562;12.108;2023-10-31T00:18:51;11.30;99.90
26063;DHT22;13837;48.562;12.108;2023-10-31T00:21:16;11.30;99.90
26063;DHT22;13837;48.562;12.108;2023-10-31T00:23:46;11.20;99.90
26063;DHT22;13837;48.562;12.108;2023-10-31T00:26:11;11.20;99.90
26063;DHT22;13837;48.562;12.108;2023-10-31T00:28:40;11.20;99.90
26063;DHT22;13837;48.562;12.108;2023-10-31T00:31:06;11.20;99.90
26063;DHT22;13837;48.562;12.108;2023-10-31T00:33:34;11.20;99.90
26063;DHT22;13837;48.562;12.108;2023-10-31T00:36:01;11.10;99.90
26063;DHT22;13837;48.562;12.108;2023-10-31T00:38:26;11.10;99.90
26063;DHT22;13837;48.562;12.108;2023-10-31T00:40:52;11.10;99.90
26063;DHT22;13837;48.562;12.108;2023-10-31T00:43:18;11.10;99.90
26063;DHT22;13837;48.562;12.108;2023-10-31T00:45:44;11.10;99.90
26063;DHT22;13837;48.562;12.108;2023-10-31T00:48:09;11.00;99.90
26063;DHT22;13837;48.562;12.108;2023-10-31T00:50:35;11.10;99.90
26063;DHT22;13837;48.562;12.108;2023-10-31T00:53:01;11.00;99.90
26063;DHT22;13837;48.562;12.108;2023-10-31T00:55:26;11.00;99.90
26063;DHT22;13837;48.562;12.108;2023-10-31T00:57:52;10.90;99.90
26063;DHT22;13837;48.562;12.108;2023-10-31T01:00:18;10.90;99.90
26063;DHT22;13837;48.562;12.108;2023-10-31T01:02:44;10.90;99.90
26063;DHT22;13837;48.562;12.108;2023-10-31T01:05:11;10.90;99.90
26063;DHT22;13837;48.562;12.108;2023-10-31T01:07:36;10.80;99.90
26063;DHT22;13837;48.562;12.108;2023-10-31T01:10:03;10.80;99.90
26063;DHT22;13837;48.562;12.108;2023-10-31T01:12:30;10.80;99.90
26063;DHT22;13837;48.562;12.108;2023-10-31T01:14:56;10.80;99.90
26063;DHT22;13837;48.562;12.108;2023-10-31T01:17:22;10.80;99.90
26063;DHT22;13837;48.562;12.108;2023-10-31T01:19:48;10.80;99.90
26063;DHT22;13837;48.562;12.108;2023-10-31T01:22:14;10.70;99.90
26063;DHT22;13837;48.562;12.108;2023-10-31T01:24:40;10.70;99.90
26063;DHT22;13837;48.562;12.108;2023-10-31T01:27:05;10.70;99.90
26063;DHT22;13837;48.562;12.108;2023-10-31T01:29:31;10.70;99.90
26063;DHT22;13837;48.562;12.108;2023-10-31T01:31:57;10.70;99.90
26063;DHT22;13837;48.562;12.108;2023-10-31T01:34:23;10.70;99.90
26063;DHT22;13837;48.562;12.108;2023-10-31T01:36:49;10.70;99.90
26063;DHT22;13837;48.562;12.108;2023-10-31T01:39:14;10.60;99.90
26063;DHT22;13837;48.562;12.108;2023-10-31T01:41:43;10.60;99.90
26063;DHT22;13837;48.562;12.108;2023-10-31T01:44:09;10.60;99.90
26063;DHT22;13837;48.562;12.108;2023-10-31T01:46:36;10.60;99.90
26063;DHT22;13837;48.562;12.108;2023-10-31T01:49:02;10.60;99.90
26063;DHT22;13837;48.562;12.108;2023-10-31T01:51:28;10.60;99.90
26063;DHT22;13837;48.562;12.108;2023-10-31T01:53:55;10.50;99.90
26063;DHT22;13837;48.562;12.108;2023-10-31T01:56:22;10.50;99.90
26063;DHT22;13837;48.562;12.108;2023-10-31T01:58:48;10.50;99.90
26063;DHT22;13837;48.562;12.108;2023-10-31T02:01:15;10.40;99.90
26063;DHT22;13837;48.562;12.108;2023-10-31T02:03:41;10.40;99.90
26063;DHT22;13837;48.562;12.108;2023-10-31T02:06:07;10.40;99.90
26063;DHT22;13837;48.562;12.108;2023-10-31T02:08:33;10.40;99.90
26063;DHT22;13837;48.562;12.108;2023-10-31T02:10:59;10.30;99.90
26063;DHT22;13837;48.562;12.108;2023-10-31T02:13:25;10.30;99.90
26063;DHT22;13837;48.562;12.108;2023-10-31T02:15:50;10.30;99.90
26063;DHT22;13837;48.562;12.108;2023-10-31T02:18:16;10.30;99.90
26063;DHT22;13837;48.562;12.108;2023-10-31T02:20:42;10.20;99.90
26063;DHT22;13837;48.562;12.108;2023-10-31T02:23:08;10.20;99.90
26063;DHT22;13837;48.562;12.108;2023-10-31T02:25:34;10.20;99.90
26063;DHT22;13837;48.562;12.108;2023-10-31T02:28:00;10.20;99.90
26063;DHT22;13837;48.562;12.108;2023-10-31T02:30:26;10.20;99.90
26063;DHT22;13837;48.562;12.108;2023-10-31T02:32:52;10.20;99.90
26063;DHT22;13837;48.562;12.108;2023-10-31T02:35:19;10.20;99.90
26063;DHT22;13837;48.562;12.108;2023-10-31T02:37:46;10.10;99.90
26063;DHT22;13837;48.562;12.108;2023-10-31T02:40:12;10.10;99.90
26063;DHT22;13837;48.562;12.108;2023-10-31T02:42:38;10.10;99.90
26063;DHT22;13837;48.562;12.108;2023-10-31T02:45:05;10.10;99.90
26063;DHT22;13837;48.562;12.108;2023-10-31T02:47:31;10.10;99.90
26063;DHT22;13837;48.562;12.108;2023-10-31T02:49:57;10.10;99.90
26063;DHT22;13837;48.562;12.108;2023-10-31T02:52:23;10.10;99.90
26063;DHT22;13837;48.562;12.108;2023-10-31T02:54:48;10.10;99.90
26063;DHT22;13837;48.562;12.108;2023-10-31T02:57:16;10.00;99.90
26063;DHT22;13837;48.562;12.108;2023-10-31T02:59:42;10.00;99.90
26063;DHT22;13837;48.562;12.108;2023-10-31T03:02:07;10.10;99.90
26063;DHT22;13837;48.562;12.108;2023-10-31T03:04:33;10.00;99.90
26063;DHT22;13837;48.562;12.108;2023-10-31T03:06:59;10.00;99.90
26063;DHT22;13837;48.562;12.108;2023-10-31T03:09:25;10.00;99.90
26063;DHT22;13837;48.562;12.108;2023-10-31T03:11:50;10.00;99.90
26063;DHT22;13837;48.562;12.108;2023-10-31T03:14:16;9.90;99.90
26063;DHT22;13837;48.562;12.108;2023-10-31T03:16:42;9.90;99.90
26063;DHT22;13837;48.562;12.108;2023-10-31T03:19:08;10.00;99.90
26063;DHT22;13837;48.562;12.108;2023-10-31T03:21:33;9.90;99.90
26063;DHT22;13837;48.562;12.108;2023-10-31T03:23:59;9.90;99.90
26063;DHT22;13837;48.562;12.108;2023-10-31T03:26:25;9.90;99.90
26063;DHT22;13837;48.562;12.108;2023-10-31T03:28:51;9.90;99.90
26063;DHT22;13837;48.562;12.108;2023-10-31T03:31:16;9.90;99.90
26063;DHT22;13837;48.562;12.108;2023-10-31T03:33:43;9.90;99.90
26063;DHT22;13837;48.562;12.108;2023-10-31T03:36:09;9.90;99.90
26063;DHT22;13837;48.562;12.108;2023-10-31T03:38:35;9.90;99.90
26063;DHT22;13837;48.562;12.108;2023-10-31T03:41:02;9.90;99.90
26063;DHT22;13837;48.562;12.108;2023-10-31T03:43:28;9.90;99.90
26063;DHT22;13837;48.562;12.108;2023-10-31T03:45:55;9.80;99.90
26063;DHT22;13837;48.562;12.108;2023-10-31T03:48:21;9.90;99.90
26063;DHT22;13837;48.562;12.108;2023-10-31T03:50:46;9.90;99.90
26063;DHT22;13837;48.562;12.108;2023-10-31T03:53:12;9.80;99.90
26063;DHT22;13837;48.562;12.108;2023-10-31T03:55:38;9.80;99.90
26063;DHT22;13837;48.562;12.108;2023-10-31T03:58:04;9.80;99.90
26063;DHT22;13837;48.562;12.108;2023-10-31T04:00:31;9.80;99.90
26063;DHT22;13837;48.562;12.108;2023-10-31T04:02:57;9.80;99.90
26063;DHT22;13837;48.562;12.108;2023-10-31T04:05:23;9.80;99.90
26063;DHT22;13837;48.562;12.108;2023-10-31T04:07:49;9.80;99.90
26063;DHT22;13837;48.562;12.108;2023-10-31T04:10:15;9.80;99.90
26063;DHT22;13837;48.562;12.108;2023-10-31T04:12:42;9.80;99.90
26063;DHT22;13837;48.562;12.108;2023-10-31T04:15:08;9.80;99.90
26063;DHT22;13837;48.562;12.108;2023-10-31T04:17:34;9.80;99.90
26063;DHT22;13837;48.562;12.108;2023-10-31T04:20:01;9.80;99.90
26063;DHT22;13837;48.562;12.108;2023-10-31T04:22:26;9.80;99.90
26063;DHT22;13837;48.562;12.108;2023-10-31T04:24:52;9.80;99.90
26063;DHT22;13837;48.562;12.108;2023-10-31T04:27:18;9.80;99.90
26063;DHT22;13837;48.562;12.108;2023-10-31T04:29:44;9.80;99.90
26063;DHT22;13837;48.562;12.108;2023-10-31T04:32:10;9.80;99.90
26063;DHT22;13837;48.562;12.108;2023-10-31T04:34:36;9.80;99.90
26063;DHT22;13837;48.562;12.108;2023-10-31T04:37:02;9.80;99.90
26063;DHT22;13837;48.562;12.108;2023-10-31T04:39:27;9.90;99.90
26063;DHT22;13837;48.562;12.108;2023-10-31T04:41:53;9.80;99.90
26063;DHT22;13837;48.562;12.108;2023-10-31T04:44:19;9.80;99.90
26063;DHT22;13837;48.562;12.108;2023-10-31T04:46:44;9.80;99.90
26063;DHT22;13837;48.562;12.108;2023-10-31T04:49:10;9.80;99.90
26063;DHT22;13837;48.562;12.108;2023-10-31T04:51:36;9.80;99.90
26063;DHT22;13837;48.562;12.108;2023-10-31T04:54:03;9.80;99.90
26063;DHT22;13837;48.562;12.108;2023-10-31T04:56:29;9.80;99.90
26063;DHT22;13837;48.562;12.108;2023-10-31T04:58:54;9.80;99.90
26063;DHT22;13837;48.562;12.108;2023-10-31T05:01:20;9.80;99.90
26063;DHT22;13837;48.562;12.108;2023-10-31T05:03:46;9.80;99.90
26063;DHT22;13837;48.562;12.108;2023-10-31T05:06:11;9.80;99.90
26063;DHT22;13837;48.562;12.108;2023-10-31T05:08:37;9.80;99.90
26063;DHT22;13837;48.562;12.108;2023-10-31T05:11:03;9.70;99.90
26063;DHT22;13837;48.562;12.108;2023-10-31T05:13:29;9.70;99.90
26063;DHT22;13837;48.562;12.108;2023-10-31T05:15:55;9.70;99.90
26063;DHT22;13837;48.562;12.108;2023-10-31T05:18:20;9.80;99.90
26063;DHT22;13837;48.562;12.108;2023-10-31T05:20:46;9.70;99.90
26063;DHT22;13837;48.562;12.108;2023-10-31T05:23:12;9.70;99.90
26063;DHT22;13837;48.562;12.108;2023-10-31T05:25:37;9.70;99.90
26063;DHT22;13837;48.562;12.108;2023-10-31T05:28:04;9.80;99.90
26063;DHT22;13837;48.562;12.108;2023-10-31T05:30:29;9.70;99.90
26063;DHT22;13837;48.562;12.108;2023-10-31T05:32:55;9.70;99.90
26063;DHT22;13837;48.562;12.108;2023-10-31T05:35:21;9.70;99.90
26063;DHT22;13837;48.562;12.108;2023-10-31T05:37:47;9.70;99.90
26063;DHT22;13837;48.562;12.108;2023-10-31T05:40:13;9.70;99.90
26063;DHT22;13837;48.562;12.108;2023-10-31T05:42:40;9.60;99.90
26063;DHT22;13837;48.562;12.108;2023-10-31T05:45:06;9.70;99.90
26063;DHT22;13837;48.562;12.108;2023-10-31T05:47:31;9.70;99.90
26063;DHT22;13837;48.562;12.108;2023-10-31T05:49:58;9.70;99.90
26063;DHT22;13837;48.562;12.108;2023-10-31T05:52:30;9.60;99.90
26063;DHT22;13837;48.562;12.108;2023-10-31T05:54:57;9.60;99.90
26063;DHT22;13837;48.562;12.108;2023-10-31T05:57:23;9.60;99.90
26063;DHT22;13837;48.562;12.108;2023-10-31T05:59:48;9.60;99.90
26063;DHT22;13837;48.562;12.108;2023-10-31T06:02:14;9.60;99.90
26063;DHT22;13837;48.562;12.108;2023-10-31T06:04:40;9.60;99.90
26063;DHT22;13837;48.562;12.108;2023-10-31T06:07:06;9.60;99.90
26063;DHT22;13837;48.562;12.108;2023-10-31T06:09:32;9.60;99.90
26063;DHT22;13837;48.562;12.108;2023-10-31T06:12:01;9.60;99.90
26063;DHT22;13837;48.562;12.108;2023-10-31T06:14:26;9.60;99.90
26063;DHT22;13837;48.562;12.108;2023-10-31T06:16:52;9.60;99.90
26063;DHT22;13837;48.562;12.108;2023-10-31T06:19:20;9.60;99.90
26063;DHT22;13837;48.562;12.108;2023-10-31T06:21:46;9.60;99.90
26063;DHT22;13837;48.562;12.108;2023-10-31T06:24:12;9.60;99.90
26063;DHT22;13837;48.562;12.108;2023-10-31T06:26:37;9.60;99.90
26063;DHT22;13837;48.562;12.108;2023-10-31T06:29:04;9.60;99.90
26063;DHT22;13837;48.562;12.108;2023-10-31T06:31:29;9.60;99.90
26063;DHT22;13837;48.562;12.108;2023-10-31T06:33:55;9.60;99.90
26063;DHT22;13837;48.562;12.108;2023-10-31T06:36:21;9.60;99.90
26063;DHT22;13837;48.562;12.108;2023-10-31T06:38:47;9.60;99.90
26063;DHT22;13837;48.562;12.108;2023-10-31T06:41:13;9.60;99.90
26063;DHT22;13837;48.562;12.108;2023-10-31T06:43:39;9.60;99.90
26063;DHT22;13837;48.562;12.108;2023-10-31T06:46:05;9.60;99.90
26063;DHT22;13837;48.562;12.108;2023-10-31T06:48:31;9.60;99.90
26063;DHT22;13837;48.562;12.108;2023-10-31T06:50:56;9.60;99.90
26063;DHT22;13837;48.562;12.108;2023-10-31T06:53:22;9.60;99.90
26063;DHT22;13837;48.562;12.108;2023-10-31T06:55:48;9.60;99.90
26063;DHT22;13837;48.562;12.108;2023-10-31T06:58:14;9.60;99.90
26063;DHT22;13837;48.562;12.108;2023-10-31T07:00:40;9.60;99.90
26063;DHT22;13837;48.562;12.108;2023-10-31T07:03:05;9.50;99.90
26063;DHT22;13837;48.562;12.108;2023-10-31T07:05:37;9.60;99.90
26063;DHT22;13837;48.562;12.108;2023-10-31T07:08:04;9.50;99.90
26063;DHT22;13837;48.562;12.108;2023-10-31T07:10:30;9.60;99.90
26063;DHT22;13837;48.562;12.108;2023-10-31T07:12:56;9.60;99.90
26063;DHT22;13837;48.562;12.108;2023-10-31T07:15:24;9.60;99.90
26063;DHT22;13837;48.562;12.108;2023-10-31T07:17:50;9.70;99.90
26063;DHT22;13837;48.562;12.108;2023-10-31T07:20:16;9.60;99.90
26063;DHT22;13837;48.562;12.108;2023-10-31T07:22:41;9.60;99.90
26063;DHT22;13837;48.562;12.108;2023-10-31T07:25:08;9.50;99.90
26063;DHT22;13837;48.562;12.108;2023-10-31T07:27:33;9.60;99.90
26063;DHT22;13837;48.562;12.108;2023-10-31T07:29:59;9.60;99.90
26063;DHT22;13837;48.562;12.108;2023-10-31T07:32:25;9.50;99.90
26063;DHT22;13837;48.562;12.108;2023-10-31T07:34:51;9.50;99.90
26063;DHT22;13837;48.562;12.108;2023-10-31T07:37:17;9.50;99.90
26063;DHT22;13837;48.562;12.108;2023-10-31T07:39:43;9.40;99.90
26063;DHT22;13837;48.562;12.108;2023-10-31T07:42:09;9.30;99.90
26063;DHT22;13837;48.562;12.108;2023-10-31T07:44:35;9.30;99.90
26063;DHT22;13837;48.562;12.108;2023-10-31T07:47:01;9.20;99.90
26063;DHT22;13837;48.562;12.108;2023-10-31T07:49:27;9.10;99.90
26063;DHT22;13837;48.562;12.108;2023-10-31T07:51:52;9.20;99.90
26063;DHT22;13837;48.562;12.108;2023-10-31T07:54:18;9.20;99.90
26063;DHT22;13837;48.562;12.108;2023-10-31T07:56:44;9.20;99.90
26063;DHT22;13837;48.562;12.108;2023-10-31T07:59:10;9.30;99.90
26063;DHT22;13837;48.562;12.108;2023-10-31T08:01:36;9.30;99.90
26063;DHT22;13837;48.562;12.108;2023-10-31T08:04:02;9.40;99.90
26063;DHT22;13837;48.562;12.108;2023-10-31T08:06:28;9.40;99.90
26063;DHT22;13837;48.562;12.108;2023-10-31T08:08:54;9.40;99.90
26063;DHT22;13837;48.562;12.108;2023-10-31T08:11:20;9.40;99.90
26063;DHT22;13837;48.562;12.108;2023-10-31T08:13:46;9.40;99.90
26063;DHT22;13837;48.562;12.108;2023-10-31T08:16:19;9.50;99.90
26063;DHT22;13837;48.562;12.108;2023-10-31T08:18:46;9.50;99.90
26063;DHT22;13837;48.562;12.108;2023-10-31T08:21:12;9.50;99.90
26063;DHT22;13837;48.562;12.108;2023-10-31T08:23:38;9.50;99.90
26063;DHT22;13837;48.562;12.108;2023-10-31T08:26:03;9.50;99.90
26063;DHT22;13837;48.562;12.108;2023-10-31T08:28:30;9.50;99.90
26063;DHT22;13837;48.562;12.108;2023-10-31T08:30:57;9.50;99.90
26063;DHT22;13837;48.562;12.108;2023-10-31T08:33:23;9.60;99.90
26063;DHT22;13837;48.562;12.108;2023-10-31T08:35:49;9.60;99.90
26063;DHT22;13837;48.562;12.108;2023-10-31T08:38:16;9.60;99.90
26063;DHT22;13837;48.562;12.108;2023-10-31T08:40:42;9.60;99.90
26063;DHT22;13837;48.562;12.108;2023-10-31T08:43:09;9.60;99.90
26063;DHT22;13837;48.562;12.108;2023-10-31T08:45:34;9.60;99.90
26063;DHT22;13837;48.562;12.108;2023-10-31T08:48:01;9.70;99.90
26063;DHT22;13837;48.562;12.108;2023-10-31T08:50:27;9.70;99.90
26063;DHT22;13837;48.562;12.108;2023-10-31T08:52:53;9.70;99.90
26063;DHT22;13837;48.562;12.108;2023-10-31T08:55:19;9.70;99.90
26063;DHT22;13837;48.562;12.108;2023-10-31T08:57:46;9.70;99.90
26063;DHT22;13837;48.562;12.108;2023-10-31T09:00:12;9.70;99.90
26063;DHT22;13837;48.562;12.108;2023-10-31T09:02:39;9.70;99.90
26063;DHT22;13837;48.562;12.108;2023-10-31T09:05:05;9.70;99.90
26063;DHT22;13837;48.562;12.108;2023-10-31T09:07:31;9.70;99.90
26063;DHT22;13837;48.562;12.108;2023-10-31T09:09:58;9.70;99.90
26063;DHT22;13837;48.562;12.108;2023-10-31T09:12:24;9.70;99.90
26063;DHT22;13837;48.562;12.108;2023-10-31T09:14:49;9.70;99.90
26063;DHT22;13837;48.562;12.108;2023-10-31T09:17:15;9.70;99.90
26063;DHT22;13837;48.562;12.108;2023-10-31T09:19:41;9.70;99.90
26063;DHT22;13837;48.562;12.108;2023-10-31T09:22:06;9.70;99.90
26063;DHT22;13837;48.562;12.108;2023-10-31T09:24:33;9.70;99.90
26063;DHT22;13837;48.562;12.108;2023-10-31T09:26:59;9.70;99.90
26063;DHT22;13837;48.562;12.108;2023-10-31T09:29:25;9.70;99.90
26063;DHT22;13837;48.562;12.108;2023-10-31T09:31:51;9.70;99.90
26063;DHT22;13837;48.562;12.108;2023-10-31T09:34:17;9.70;99.90
26063;DHT22;13837;48.562;12.108;2023-10-31T09:36:43;9.80;99.90
26063;DHT22;13837;48.562;12.108;2023-10-31T09:39:09;9.80;99.90
26063;DHT22;13837;48.562;12.108;2023-10-31T09:41:36;9.80;99.90
26063;DHT22;13837;48.562;12.108;2023-10-31T09:44:02;9.80;99.90
26063;DHT22;13837;48.562;12.108;2023-10-31T09:46:31;9.80;99.90
26063;DHT22;13837;48.562;12.108;2023-10-31T09:48:57;9.80;99.90
26063;DHT22;13837;48.562;12.108;2023-10-31T09:51:23;9.80;99.90
26063;DHT22;13837;48.562;12.108;2023-10-31T09:53:50;9.90;99.90
26063;DHT22;13837;48.562;12.108;2023-10-31T09:56:19;9.90;99.90
26063;DHT22;13837;48.562;12.108;2023-10-31T09:58:46;9.90;99.90
26063;DHT22;13837;48.562;12.108;2023-10-31T10:01:12;9.90;99.90
26063;DHT22;13837;48.562;12.108;2023-10-31T10:03:38;9.90;99.90
26063;DHT22;13837;48.562;12.108;2023-10-31T10:06:06;9.90;99.90
26063;DHT22;13837;48.562;12.108;2023-10-31T10:08:34;9.90;99.90
26063;DHT22;13837;48.562;12.108;2023-10-31T10:11:02;9.90;99.90
26063;DHT22;13837;48.562;12.108;2023-10-31T10:13:30;9.90;99.90
26063;DHT22;13837;48.562;12.108;2023-10-31T10:15:59;9.90;99.90
26063;DHT22;13837;48.562;12.108;2023-10-31T10:18:32;9.90;99.90
26063;DHT22;13837;48.562;12.108;2023-10-31T10:21:01;9.90;99.90
26063;DHT22;13837;48.562;12.108;2023-10-31T10:23:28;9.90;99.90
26063;DHT22;13837;48.562;12.108;2023-10-31T10:25:56;9.90;99.90
26063;DHT22;13837;48.562;12.108;2023-10-31T10:28:23;9.90;99.90
26063;DHT22;13837;48.562;12.108;2023-10-31T10:30:51;9.80;99.90
26063;DHT22;13837;48.562;12.108;2023-10-31T10:33:17;9.80;99.90
26063;DHT22;13837;48.562;12.108;2023-10-31T10:35:44;9.90;99.90
26063;DHT22;13837;48.562;12.108;2023-10-31T10:38:15;9.90;99.90
26063;DHT22;13837;48.562;12.108;2023-10-31T10:40:43;9.90;99.90
26063;DHT22;13837;48.562;12.108;2023-10-31T10:45:45;9.90;99.90
26063;DHT22;13837;48.562;12.108;2023-10-31T10:48:13;9.80;99.90
26063;DHT22;13837;48.562;12.108;2023-10-31T10:50:46;9.90;99.90
26063;DHT22;13837;48.562;12.108;2023-10-31T10:53:24;9.90;99.90
26063;DHT22;13837;48.562;12.108;2023-10-31T10:56:00;10.00;99.90
26063;DHT22;13837;48.562;12.108;2023-10-31T10:58:35;10.00;99.90
26063;DHT22;13837;48.562;12.108;2023-10-31T11:01:03;10.00;99.90
26063;DHT22;13837;48.562;12.108;2023-10-31T11:03:30;10.10;99.90
26063;DHT22;13837;48.562;12.108;2023-10-31T11:05:57;10.10;99.90
26063;DHT22;13837;48.562;12.108;2023-10-31T11:08:24;10.10;99.90
26063;DHT22;13837;48.562;12.108;2023-10-31T11:10:52;10.20;99.90
26063;DHT22;13837;48.562;12.108;2023-10-31T11:13:45;10.20;99.90
26063;DHT22;13837;48.562;12.108;2023-10-31T11:16:17;10.20;99.90
26063;DHT22;13837;48.562;12.108;2023-10-31T11:18:46;10.30;99.90
26063;DHT22;13837;48.562;12.108;2023-10-31T11:21:12;10.30;99.90
26063;DHT22;13837;48.562;12.108;2023-10-31T11:23:38;10.30;99.90
26063;DHT22;13837;48.562;12.108;2023-10-31T11:26:07;10.30;99.90
26063;DHT22;13837;48.562;12.108;2023-10-31T11:28:37;10.40;99.90
26063;DHT22;13837;48.562;12.108;2023-10-31T11:31:04;10.40;99.90
26063;DHT22;13837;48.562;12.108;2023-10-31T11:33:38;10.40;99.90
26063;DHT22;13837;48.562;12.108;2023-10-31T11:36:06;10.40;99.90
26063;DHT22;13837;48.562;12.108;2023-10-31T11:38:36;10.30;99.90
26063;DHT22;13837;48.562;12.108;2023-10-31T11:41:03;10.40;99.90
26063;DHT22;13837;48.562;12.108;2023-10-31T11:46:06;10.40;99.90
26063;DHT22;13837;48.562;12.108;2023-10-31T11:48:50;10.40;99.90
26063;DHT22;13837;48.562;12.108;2023-10-31T11:51:17;10.40;99.90
26063;DHT22;13837;48.562;12.108;2023-10-31T11:53:44;10.40;99.90
26063;DHT22;13837;48.562;12.108;2023-10-31T11:56:19;10.30;99.90
26063;DHT22;13837;48.562;12.108;2023-10-31T11:58:58;10.40;99.90
26063;DHT22;13837;48.562;12.108;2023-10-31T12:01:25;10.40;99.90
26063;DHT22;13837;48.562;12.108;2023-10-31T12:03:55;10.30;99.90
26063;DHT22;13837;48.562;12.108;2023-10-31T12:06:21;10.40;99.90
26063;DHT22;13837;48.562;12.108;2023-10-31T12:08:48;10.40;99.90
26063;DHT22;13837;48.562;12.108;2023-10-31T12:11:16;10.40;99.90
26063;DHT22;13837;48.562;12.108;2023-10-31T12:13:55;10.40;99.90
26063;DHT22;13837;48.562;12.108;2023-10-31T12:16:24;10.40;99.90
26063;DHT22;13837;48.562;12.108;2023-10-31T12:19:09;10.50;99.90
26063;DHT22;13837;48.562;12.108;2023-10-31T12:21:43;10.40;99.90
26063;DHT22;13837;48.562;12.108;2023-10-31T12:24:14;10.40;99.90
26063;DHT22;13837;48.562;12.108;2023-10-31T12:26:41;10.40;99.90
26063;DHT22;13837;48.562;12.108;2023-10-31T12:29:13;10.50;99.90
26063;DHT22;13837;48.562;12.108;2023-10-31T12:31:50;10.50;99.90
26063;DHT22;13837;48.562;12.108;2023-10-31T12:34:19;10.60;99.90
26063;DHT22;13837;48.562;12.108;2023-10-31T12:36:49;10.60;99.90
26063;DHT22;13837;48.562;12.108;2023-10-31T12:39:17;10.60;99.90
26063;DHT22;13837;48.562;12.108;2023-10-31T12:41:43;10.70;99.90
26063;DHT22;13837;48.562;12.108;2023-10-31T12:44:09;10.80;99.90
26063;DHT22;13837;48.562;12.108;2023-10-31T12:46:40;10.80;99.90
26063;DHT22;13837;48.562;12.108;2023-10-31T12:49:12;10.80;99.90
26063;DHT22;13837;48.562;12.108;2023-10-31T12:56:59;10.80;99.90
26063;DHT22;13837;48.562;12.108;2023-10-31T12:59:25;10.90;99.90
26063;DHT22;13837;48.562;12.108;2023-10-31T13:01:51;10.90;99.90
26063;DHT22;13837;48.562;12.108;2023-10-31T13:04:30;10.90;99.90
26063;DHT22;13837;48.562;12.108;2023-10-31T13:07:03;10.90;99.90
26063;DHT22;13837;48.562;12.108;2023-10-31T13:09:30;11.00;99.90
26063;DHT22;13837;48.562;12.108;2023-10-31T13:12:07;11.00;99.90
26063;DHT22;13837;48.562;12.108;2023-10-31T13:14:33;11.10;99.90
26063;DHT22;13837;48.562;12.108;2023-10-31T13:16:59;11.10;99.90
26063;DHT22;13837;48.562;12.108;2023-10-31T13:19:25;11.10;99.90
26063;DHT22;13837;48.562;12.108;2023-10-31T13:21:51;11.20;99.90
26063;DHT22;13837;48.562;12.108;2023-10-31T13:24:17;11.20;99.90
26063;DHT22;13837;48.562;12.108;2023-10-31T13:26:44;11.20;99.90
26063;DHT22;13837;48.562;12.108;2023-10-31T13:29:10;11.20;99.90
26063;DHT22;13837;48.562;12.108;2023-10-31T13:31:37;11.20;99.90
26063;DHT22;13837;48.562;12.108;2023-10-31T13:34:03;11.20;99.90
26063;DHT22;13837;48.562;12.108;2023-10-31T13:36:29;11.30;99.90
26063;DHT22;13837;48.562;12.108;2023-10-31T13:38:54;11.20;99.90
26063;DHT22;13837;48.562;12.108;2023-10-31T13:41:20;11.20;99.90
26063;DHT22;13837;48.562;12.108;2023-10-31T13:43:46;11.20;99.90
26063;DHT22;13837;48.562;12.108;2023-10-31T13:46:14;11.30;99.90
26063;DHT22;13837;48.562;12.108;2023-10-31T13:48:42;11.30;99.90
26063;DHT22;13837;48.562;12.108;2023-10-31T13:51:07;11.30;99.90
26063;DHT22;13837;48.562;12.108;2023-10-31T13:53:33;11.30;99.90
26063;DHT22;13837;48.562;12.108;2023-10-31T13:55:59;11.30;99.90
26063;DHT22;13837;48.562;12.108;2023-10-31T13:58:24;11.30;99.90
26063;DHT22;13837;48.562;12.108;2023-10-31T14:00:50;11.30;99.90
26063;DHT22;13837;48.562;12.108;2023-10-31T14:03:17;11.30;99.90
26063;DHT22;13837;48.562;12.108;2023-10-31T14:05:43;11.40;99.90
26063;DHT22;13837;48.562;12.108;2023-10-31T14:08:09;11.30;99.90
26063;DHT22;13837;48.562;12.108;2023-10-31T14:10:34;11.40;99.90
26063;DHT22;13837;48.562;12.108;2023-10-31T14:13:00;11.30;99.90
26063;DHT22;13837;48.562;12.108;2023-10-31T14:15:26;11.40;99.90
26063;DHT22;13837;48.562;12.108;2023-10-31T14:17:51;11.40;99.90
26063;DHT22;13837;48.562;12.108;2023-10-31T14:20:17;11.40;99.90
26063;DHT22;13837;48.562;12.108;2023-10-31T14:22:50;11.40;99.90
26063;DHT22;13837;48.562;12.108;2023-10-31T14:25:16;11.40;99.90
26063;DHT22;13837;48.562;12.108;2023-10-31T14:27:42;11.40;99.90
26063;DHT22;13837;48.562;12.108;2023-10-31T14:30:10;11.40;99.90
26063;DHT22;13837;48.562;12.108;2023-10-31T14:32:36;11.30;99.90
26063;DHT22;13837;48.562;12.108;2023-10-31T14:35:02;11.30;99.90
26063;DHT22;13837;48.562;12.108;2023-10-31T14:37:28;11.30;99.90
26063;DHT22;13837;48.562;12.108;2023-10-31T14:39:54;11.30;99.90
26063;DHT22;13837;48.562;12.108;2023-10-31T14:42:20;11.30;99.90
26063;DHT22;13837;48.562;12.108;2023-10-31T14:44:46;11.30;99.90
26063;DHT22;13837;48.562;12.108;2023-10-31T14:47:12;11.40;99.90
26063;DHT22;13837;48.562;12.108;2023-10-31T14:49:38;11.40;99.90
26063;DHT22;13837;48.562;12.108;2023-10-31T14:52:04;11.40;99.90
26063;DHT22;13837;48.562;12.108;2023-10-31T14:54:32;11.40;99.90
26063;DHT22;13837;48.562;12.108;2023-10-31T14:56:57;11.40;99.90
26063;DHT22;13837;48.562;12.108;2023-10-31T14:59:23;11.30;99.90
26063;DHT22;13837;48.562;12.108;2023-10-31T15:01:49;11.30;99.90
26063;DHT22;13837;48.562;12.108;2023-10-31T15:04:14;11.30;99.90
26063;DHT22;13837;48.562;12.108;2023-10-31T15:06:42;11.30;99.90
26063;DHT22;13837;48.562;12.108;2023-10-31T15:09:09;11.30;99.90
26063;DHT22;13837;48.562;12.108;2023-10-31T15:11:35;11.30;99.90
26063;DHT22;13837;48.562;12.108;2023-10-31T15:14:02;11.20;99.90
26063;DHT22;13837;48.562;12.108;2023-10-31T15:16:28;11.20;99.90
26063;DHT22;13837;48.562;12.108;2023-10-31T15:18:54;11.20;99.90
26063;DHT22;13837;48.562;12.108;2023-10-31T15:21:19;11.20;99.90
26063;DHT22;13837;48.562;12.108;2023-10-31T15:23:46;11.10;99.90
26063;DHT22;13837;48.562;12.108;2023-10-31T15:26:12;11.10;99.90
26063;DHT22;13837;48.562;12.108;2023-10-31T15:28:42;11.00;99.90
26063;DHT22;13837;48.562;12.108;2023-10-31T15:31:08;11.00;99.90